^^
Station Historical Data
 
Daily Summary for January 19, 2019 Units:  English    Metric   Both
« Previous Day
Next Day »
Daily Weekly Monthly Yearly Custom
  Current: High: Low: Average:
Temperature: 68.0 °F TemperatureF °F 50.0 °F 63.8 °F
Dew Point: 55.8 °F DewpointF °F 46.6 °F 51.8 °F
Humidity: 65% Humidity% 40% 68%
Wind Speed: 0.0mph WindSpeedMPHmph 0.0mph 0mph
Wind Gust: 0.0mph WindSpeedGustMPHmph - -
WindCalm - - North
Pressure: 29.89 in PressureIn in 29.89 in -
Precipitation: 0.00 in      
Historical Graphs
 
 
Tabular Data for January 19, 2019
Time Temperature Dew Point Pressure Wind Wind Speed Wind Gust Humidity Rainfall Rate (Hourly) solar Conditions
TemperatureF °F DewpointF °F PressureIn in Calm     Humidity% HourlyPrecipIn in SolarRadiationWatts/m^2 W/m2 Conditions
00:04 57.0 °F 46.6 °F 30.12 in Calm     68% 0.00 in 0.00 W/m2 CLR
00:09 57.0 °F 46.6 °F 30.12 in Calm     68% 0.00 in 0.00 W/m2 CLR
00:14 57.0 °F 46.6 °F 30.12 in Calm     68% 0.00 in 0.00 W/m2 CLR
00:19 57.0 °F 46.6 °F 30.12 in Calm     68% 0.00 in 0.00 W/m2 CLR
00:24 57.0 °F 46.6 °F 30.12 in Calm     68% 0.00 in 0.00 W/m2 CLR
00:29 57.0 °F 46.6 °F 30.12 in Calm     68% 0.00 in 0.00 W/m2 CLR
00:34 57.0 °F 46.6 °F 30.12 in Calm     68% 0.00 in 0.00 W/m2 CLR
00:39 57.0 °F 46.6 °F 30.12 in Calm     68% 0.00 in 0.00 W/m2 CLR
00:44 57.0 °F 46.6 °F 30.12 in Calm     68% 0.00 in 0.00 W/m2 CLR
00:49 57.0 °F 46.6 °F 30.12 in Calm     68% 0.00 in 0.00 W/m2 CLR
00:54 57.0 °F 46.6 °F 30.12 in Calm     68% 0.00 in 0.00 W/m2 CLR
00:59 57.0 °F 46.6 °F 30.12 in Calm     68% 0.00 in 0.00 W/m2 CLR
01:04 54.0 °F 47.9 °F 30.11 in Calm     80% 0.00 in 0.00 W/m2 CLR
01:09 54.0 °F 47.9 °F 30.11 in Calm     80% 0.00 in 0.00 W/m2 CLR
01:14 54.0 °F 47.9 °F 30.11 in Calm     80% 0.00 in 0.00 W/m2 CLR
01:19 54.0 °F 47.9 °F 30.11 in Calm     80% 0.00 in 0.00 W/m2 CLR
01:24 54.0 °F 47.9 °F 30.11 in Calm     80% 0.00 in 0.00 W/m2 CLR
01:29 54.0 °F 47.9 °F 30.11 in Calm     80% 0.00 in 0.00 W/m2 CLR
01:34 54.0 °F 47.9 °F 30.11 in Calm     80% 0.00 in 0.00 W/m2 CLR
01:39 54.0 °F 47.9 °F 30.11 in Calm     80% 0.00 in 0.00 W/m2 CLR
01:44 54.0 °F 47.9 °F 30.11 in Calm     80% 0.00 in 0.00 W/m2 CLR
01:49 54.0 °F 47.9 °F 30.11 in Calm     80% 0.00 in 0.00 W/m2 CLR
01:54 54.0 °F 47.9 °F 30.11 in Calm     80% 0.00 in 0.00 W/m2 CLR
01:59 54.0 °F 47.9 °F 30.11 in Calm     80% 0.00 in 0.00 W/m2 CLR
02:04 53.1 °F 47.7 °F 30.10 in Calm     82% 0.00 in 0.00 W/m2 CLR
02:09 53.1 °F 47.7 °F 30.10 in Calm     82% 0.00 in 0.00 W/m2 CLR
02:14 53.1 °F 47.7 °F 30.10 in Calm     82% 0.00 in 0.00 W/m2 CLR
02:19 53.1 °F 47.7 °F 30.10 in Calm     82% 0.00 in 0.00 W/m2 CLR
02:24 53.1 °F 47.7 °F 30.10 in Calm     82% 0.00 in 0.00 W/m2 CLR
02:29 53.1 °F 47.7 °F 30.10 in Calm     82% 0.00 in 0.00 W/m2 CLR
02:34 53.1 °F 47.7 °F 30.10 in Calm     82% 0.00 in 0.00 W/m2 CLR
02:39 53.1 °F 47.7 °F 30.10 in Calm     82% 0.00 in 0.00 W/m2 CLR
02:44 53.1 °F 47.7 °F 30.10 in Calm     82% 0.00 in 0.00 W/m2 CLR
02:49 53.1 °F 47.7 °F 30.10 in Calm     82% 0.00 in 0.00 W/m2 CLR
02:54 53.1 °F 47.7 °F 30.10 in Calm     82% 0.00 in 0.00 W/m2 CLR
02:59 53.1 °F 47.7 °F 30.10 in Calm     82% 0.00 in 0.00 W/m2 CLR
03:04 54.0 °F 48.6 °F 30.09 in Calm     82% 0.00 in 0.00 W/m2 CLR
03:09 54.0 °F 48.6 °F 30.09 in Calm     82% 0.00 in 0.00 W/m2 CLR
03:14 54.0 °F 48.6 °F 30.09 in Calm     82% 0.00 in 0.00 W/m2 CLR
03:19 54.0 °F 48.6 °F 30.09 in Calm     82% 0.00 in 0.00 W/m2 CLR
03:24 54.0 °F 48.6 °F 30.09 in Calm     82% 0.00 in 0.00 W/m2 CLR
03:29 54.0 °F 48.6 °F 30.09 in Calm     82% 0.00 in 0.00 W/m2 CLR
03:34 54.0 °F 48.6 °F 30.09 in Calm     82% 0.00 in 0.00 W/m2 CLR
03:39 54.0 °F 48.6 °F 30.09 in Calm     82% 0.00 in 0.00 W/m2 CLR
03:44 54.0 °F 48.6 °F 30.09 in Calm     82% 0.00 in 0.00 W/m2 CLR
03:49 54.0 °F 48.6 °F 30.09 in Calm     82% 0.00 in 0.00 W/m2 CLR
03:54 54.0 °F 48.6 °F 30.09 in Calm     82% 0.00 in 0.00 W/m2 CLR
03:59 54.0 °F 48.6 °F 30.09 in Calm     82% 0.00 in 0.00 W/m2 CLR
04:04 51.1 °F 48.8 °F 30.08 in Calm     92% 0.00 in 0.00 W/m2 CLR
04:09 51.1 °F 48.8 °F 30.08 in Calm     92% 0.00 in 0.00 W/m2 CLR
04:14 51.1 °F 48.8 °F 30.08 in Calm     92% 0.00 in 0.00 W/m2 CLR
04:19 51.1 °F 48.8 °F 30.08 in Calm     92% 0.00 in 0.00 W/m2 CLR
04:24 51.1 °F 48.8 °F 30.08 in Calm     92% 0.00 in 0.00 W/m2 CLR
04:29 51.1 °F 48.8 °F 30.08 in Calm     92% 0.00 in 0.00 W/m2 CLR
04:34 51.1 °F 48.8 °F 30.08 in Calm     92% 0.00 in 0.00 W/m2 CLR
04:39 51.1 °F 48.8 °F 30.08 in Calm     92% 0.00 in 0.00 W/m2 CLR
04:44 51.1 °F 48.8 °F 30.08 in Calm     92% 0.00 in 0.00 W/m2 CLR
04:49 51.1 °F 48.8 °F 30.08 in Calm     92% 0.00 in 0.00 W/m2 CLR
04:54 51.1 °F 48.8 °F 30.08 in Calm     92% 0.00 in 0.00 W/m2 CLR
04:59 51.1 °F 48.8 °F 30.08 in Calm     92% 0.00 in 0.00 W/m2 CLR
05:04 53.1 °F 48.7 °F 30.07 in Calm     85% 0.00 in 0.00 W/m2 CLR
05:09 53.1 °F 48.7 °F 30.07 in Calm     85% 0.00 in 0.00 W/m2 CLR
05:14 53.1 °F 48.7 °F 30.07 in Calm     85% 0.00 in 0.00 W/m2 CLR
05:19 53.1 °F 48.7 °F 30.07 in Calm     85% 0.00 in 0.00 W/m2 CLR
05:24 53.1 °F 48.7 °F 30.07 in Calm     85% 0.00 in 0.00 W/m2 CLR
05:29 53.1 °F 48.7 °F 30.07 in Calm     85% 0.00 in 0.00 W/m2 CLR
05:34 53.1 °F 48.7 °F 30.07 in Calm     85% 0.00 in 0.00 W/m2 CLR
05:39 53.1 °F 48.7 °F 30.07 in Calm     85% 0.00 in 0.00 W/m2 CLR
05:44 53.1 °F 48.7 °F 30.07 in Calm     85% 0.00 in 0.00 W/m2 CLR
05:49 53.1 °F 48.7 °F 30.07 in Calm     85% 0.00 in 0.00 W/m2 CLR
05:54 53.1 °F 48.7 °F 30.07 in Calm     85% 0.00 in 0.00 W/m2 CLR
05:59 53.1 °F 48.7 °F 30.07 in Calm     85% 0.00 in 0.00 W/m2 CLR
06:04 51.1 °F 48.8 °F 30.06 in Calm     92% 0.00 in 0.00 W/m2 CLR
06:09 51.1 °F 48.8 °F 30.06 in Calm     92% 0.00 in 0.00 W/m2 CLR
06:14 51.1 °F 48.8 °F 30.06 in Calm     92% 0.00 in 0.00 W/m2 CLR
06:19 51.1 °F 48.8 °F 30.06 in Calm     92% 0.00 in 0.00 W/m2 CLR
06:24 51.1 °F 48.8 °F 30.06 in Calm     92% 0.00 in 0.00 W/m2 CLR
06:29 51.1 °F 48.8 °F 30.06 in Calm     92% 0.00 in 0.00 W/m2 CLR
06:34 51.1 °F 48.8 °F 30.06 in Calm     92% 0.00 in 0.00 W/m2 CLR
06:39 51.1 °F 48.8 °F 30.06 in Calm     92% 0.00 in 0.00 W/m2 CLR
06:44 51.1 °F 48.8 °F 30.06 in Calm     92% 0.00 in 0.00 W/m2 CLR
06:49 51.1 °F 48.8 °F 30.06 in Calm     92% 0.00 in 0.00 W/m2 CLR
06:54 51.1 °F 48.8 °F 30.06 in Calm     92% 0.00 in 0.00 W/m2 CLR
06:59 51.1 °F 48.8 °F 30.06 in Calm     92% 0.00 in 0.00 W/m2 CLR
07:04 50.0 °F 47.8 °F 30.06 in Calm     92% 0.00 in 0.00 W/m2 CLR
07:09 50.0 °F 47.8 °F 30.06 in Calm     92% 0.00 in 0.00 W/m2 CLR
07:14 50.0 °F 47.8 °F 30.06 in Calm     92% 0.00 in 0.00 W/m2 CLR
07:19 50.0 °F 47.8 °F 30.06 in Calm     92% 0.00 in 0.00 W/m2 CLR
07:24 50.0 °F 47.8 °F 30.06 in Calm     92% 0.00 in 0.00 W/m2 CLR
07:29 50.0 °F 47.8 °F 30.06 in Calm     92% 0.00 in 0.00 W/m2 CLR
07:34 50.0 °F 47.8 °F 30.06 in Calm     92% 0.00 in 0.00 W/m2 CLR
07:39 50.0 °F 47.8 °F 30.06 in Calm     92% 0.00 in 0.00 W/m2 CLR
07:44 50.0 °F 47.8 °F 30.06 in Calm     92% 0.00 in 0.00 W/m2 CLR
07:49 50.0 °F 47.8 °F 30.06 in Calm     92% 0.00 in 0.00 W/m2 CLR
07:54 50.0 °F 47.8 °F 30.06 in Calm     92% 0.00 in 0.00 W/m2 CLR
07:59 50.0 °F 47.8 °F 30.06 in Calm     92% 0.00 in 0.00 W/m2 CLR
08:04 53.1 °F 50.8 °F 30.07 in Calm     92% 0.00 in 0.00 W/m2 CLR
08:09 53.1 °F 50.8 °F 30.07 in Calm     92% 0.00 in 0.00 W/m2 CLR
08:14 53.1 °F 50.8 °F 30.07 in Calm     92% 0.00 in 0.00 W/m2 CLR
08:19 53.1 °F 50.8 °F 30.07 in Calm     92% 0.00 in 0.00 W/m2 CLR
08:24 53.1 °F 50.8 °F 30.07 in Calm     92% 0.00 in 0.00 W/m2 CLR
08:29 53.1 °F 50.8 °F 30.07 in Calm     92% 0.00 in 0.00 W/m2 CLR
08:34 53.1 °F 50.8 °F 30.07 in Calm     92% 0.00 in 0.00 W/m2 CLR
08:39 53.1 °F 50.8 °F 30.07 in Calm     92% 0.00 in 0.00 W/m2 CLR
08:44 53.1 °F 50.8 °F 30.07 in Calm     92% 0.00 in 0.00 W/m2 CLR
08:49 53.1 °F 50.8 °F 30.07 in Calm     92% 0.00 in 0.00 W/m2 CLR
08:54 53.1 °F 50.8 °F 30.07 in Calm     92% 0.00 in 0.00 W/m2 CLR
08:59 53.1 °F 50.8 °F 30.07 in Calm     92% 0.00 in 0.00 W/m2 CLR
09:04 61.0 °F 55.8 °F 30.07 in Calm     83% 0.00 in 0.00 W/m2 CLR
09:09 61.0 °F 55.8 °F 30.07 in Calm     83% 0.00 in 0.00 W/m2 CLR
09:14 61.0 °F 55.8 °F 30.07 in Calm     83% 0.00 in 0.00 W/m2 CLR
09:19 61.0 °F 55.8 °F 30.07 in Calm     83% 0.00 in 0.00 W/m2 CLR
09:24 61.0 °F 55.8 °F 30.07 in Calm     83% 0.00 in 0.00 W/m2 CLR
09:29 61.0 °F 55.8 °F 30.07 in Calm     83% 0.00 in 0.00 W/m2 CLR
09:34 61.0 °F 55.8 °F 30.07 in Calm     83% 0.00 in 0.00 W/m2 CLR
09:39 61.0 °F 55.8 °F 30.07 in Calm     83% 0.00 in 0.00 W/m2 CLR
09:44 61.0 °F 55.8 °F 30.07 in Calm     83% 0.00 in 0.00 W/m2 CLR
09:49 61.0 °F 55.8 °F 30.07 in Calm     83% 0.00 in 0.00 W/m2 CLR
09:54 61.0 °F 55.8 °F 30.07 in Calm     83% 0.00 in 0.00 W/m2 CLR
09:59 61.0 °F 55.8 °F 30.07 in Calm     83% 0.00 in 0.00 W/m2 CLR
10:04 66.9 °F 57.6 °F 30.08 in Calm     72% 0.00 in 0.00 W/m2 CLR
10:09 66.9 °F 57.6 °F 30.08 in Calm     72% 0.00 in 0.00 W/m2 CLR
10:14 66.9 °F 57.6 °F 30.08 in Calm     72% 0.00 in 0.00 W/m2 CLR
10:19 66.9 °F 57.6 °F 30.08 in Calm     72% 0.00 in 0.00 W/m2 CLR
10:24 66.9 °F 57.6 °F 30.08 in Calm     72% 0.00 in 0.00 W/m2 CLR
10:29 66.9 °F 57.6 °F 30.08 in Calm     72% 0.00 in 0.00 W/m2 CLR
10:34 66.9 °F 57.6 °F 30.08 in Calm     72% 0.00 in 0.00 W/m2 CLR
10:39 66.9 °F 57.6 °F 30.08 in Calm     72% 0.00 in 0.00 W/m2 CLR
10:44 66.9 °F 57.6 °F 30.08 in Calm     72% 0.00 in 0.00 W/m2 CLR
10:49 66.9 °F 57.6 °F 30.08 in Calm     72% 0.00 in 0.00 W/m2 CLR
10:54 66.9 °F 57.6 °F 30.08 in Calm     72% 0.00 in 0.00 W/m2 CLR
10:59 66.9 °F 57.6 °F 30.08 in Calm     72% 0.00 in 0.00 W/m2 CLR
11:04 71.1 °F 57.8 °F 30.07 in Calm     63% 0.00 in 0.00 W/m2 CLR
11:09 71.1 °F 57.8 °F 30.07 in Calm     63% 0.00 in 0.00 W/m2 CLR
11:14 71.1 °F 57.8 °F 30.07 in Calm     63% 0.00 in 0.00 W/m2 CLR
11:19 71.1 °F 57.8 °F 30.07 in Calm     63% 0.00 in 0.00 W/m2 CLR
11:24 71.1 °F 57.8 °F 30.07 in Calm     63% 0.00 in 0.00 W/m2 CLR
11:29 71.1 °F 57.8 °F 30.07 in Calm     63% 0.00 in 0.00 W/m2 CLR
11:34 71.1 °F 57.8 °F 30.07 in Calm     63% 0.00 in 0.00 W/m2 CLR
11:39 71.1 °F 57.8 °F 30.07 in Calm     63% 0.00 in 0.00 W/m2 CLR
11:44 71.1 °F 57.8 °F 30.07 in Calm     63% 0.00 in 0.00 W/m2 CLR
11:49 71.1 °F 57.8 °F 30.07 in Calm     63% 0.00 in 0.00 W/m2 CLR
11:54 71.1 °F 57.8 °F 30.07 in Calm     63% 0.00 in 0.00 W/m2 CLR
11:59 71.1 °F 57.8 °F 30.07 in Calm     63% 0.00 in 0.00 W/m2 CLR
12:04 73.9 °F 57.7 °F 30.04 in Calm     57% 0.00 in 0.00 W/m2 CLR
12:09 73.9 °F 57.7 °F 30.04 in Calm     57% 0.00 in 0.00 W/m2 CLR
12:14 73.9 °F 57.7 °F 30.04 in Calm     57% 0.00 in 0.00 W/m2 CLR
12:19 73.9 °F 57.7 °F 30.04 in Calm     57% 0.00 in 0.00 W/m2 CLR
12:24 73.9 °F 57.7 °F 30.04 in Calm     57% 0.00 in 0.00 W/m2 CLR
12:29 73.9 °F 57.7 °F 30.04 in Calm     57% 0.00 in 0.00 W/m2 CLR
12:34 73.9 °F 57.7 °F 30.04 in Calm     57% 0.00 in 0.00 W/m2 CLR
12:39 73.9 °F 57.7 °F 30.04 in Calm     57% 0.00 in 0.00 W/m2 CLR
12:44 73.9 °F 57.7 °F 30.04 in Calm     57% 0.00 in 0.00 W/m2 CLR
12:49 73.9 °F 57.7 °F 30.04 in Calm     57% 0.00 in 0.00 W/m2 CLR
12:54 73.9 °F 57.7 °F 30.04 in Calm     57% 0.00 in 0.00 W/m2 CLR
12:59 73.9 °F 57.7 °F 30.04 in Calm     57% 0.00 in 0.00 W/m2 CLR
13:04 78.1 °F 55.6 °F 30.00 in Calm     46% 0.00 in 0.00 W/m2 CLR
13:09 78.1 °F 55.6 °F 30.00 in Calm     46% 0.00 in 0.00 W/m2 CLR
13:14 78.1 °F 55.6 °F 30.00 in Calm     46% 0.00 in 0.00 W/m2 CLR
13:19 78.1 °F 55.6 °F 30.00 in Calm     46% 0.00 in 0.00 W/m2 CLR
13:24 78.1 °F 55.6 °F 30.00 in Calm     46% 0.00 in 0.00 W/m2 CLR
13:29 78.1 °F 55.6 °F 30.00 in Calm     46% 0.00 in 0.00 W/m2 CLR
13:34 78.1 °F 55.6 °F 30.00 in Calm     46% 0.00 in 0.00 W/m2 CLR
13:39 78.1 °F 55.6 °F 30.00 in Calm     46% 0.00 in 0.00 W/m2 CLR
13:44 78.1 °F 55.6 °F 30.00 in Calm     46% 0.00 in 0.00 W/m2 CLR
13:49 78.1 °F 55.6 °F 30.00 in Calm     46% 0.00 in 0.00 W/m2 CLR
13:54 78.1 °F 55.6 °F 30.00 in Calm     46% 0.00 in 0.00 W/m2 CLR
13:59 78.1 °F 55.6 °F 30.00 in Calm     46% 0.00 in 0.00 W/m2 CLR
14:04 79.0 °F 53.9 °F 29.96 in Calm     42% 0.00 in 0.00 W/m2 CLR
14:09 79.0 °F 53.9 °F 29.96 in Calm     42% 0.00 in 0.00 W/m2 CLR
14:14 79.0 °F 53.9 °F 29.96 in Calm     42% 0.00 in 0.00 W/m2 CLR
14:19 79.0 °F 53.9 °F 29.96 in Calm     42% 0.00 in 0.00 W/m2 CLR
14:24 79.0 °F 53.9 °F 29.96 in Calm     42% 0.00 in 0.00 W/m2 CLR
14:29 79.0 °F 53.9 °F 29.96 in Calm     42% 0.00 in 0.00 W/m2 CLR
14:34 79.0 °F 53.9 °F 29.96 in Calm     42% 0.00 in 0.00 W/m2 CLR
14:39 79.0 °F 53.9 °F 29.96 in Calm     42% 0.00 in 0.00 W/m2 CLR
14:44 79.0 °F 53.9 °F 29.96 in Calm     42% 0.00 in 0.00 W/m2 CLR
14:49 79.0 °F 53.9 °F 29.96 in Calm     42% 0.00 in 0.00 W/m2 CLR
14:54 79.0 °F 53.9 °F 29.96 in Calm     42% 0.00 in 0.00 W/m2 CLR
14:59 79.0 °F 53.9 °F 29.96 in Calm     42% 0.00 in 0.00 W/m2 CLR
15:04 79.0 °F 52.6 °F 29.94 in Calm     40% 0.00 in 0.00 W/m2 CLR
15:09 79.0 °F 52.6 °F 29.94 in Calm     40% 0.00 in 0.00 W/m2 CLR
15:14 79.0 °F 52.6 °F 29.94 in Calm     40% 0.00 in 0.00 W/m2 CLR
15:19 79.0 °F 52.6 °F 29.94 in Calm     40% 0.00 in 0.00 W/m2 CLR
15:24 79.0 °F 52.6 °F 29.94 in Calm     40% 0.00 in 0.00 W/m2 CLR
15:29 79.0 °F 52.6 °F 29.94 in Calm     40% 0.00 in 0.00 W/m2 CLR
15:34 79.0 °F 52.6 °F 29.94 in Calm     40% 0.00 in 0.00 W/m2 CLR
15:39 79.0 °F 52.6 °F 29.94 in Calm     40% 0.00 in 0.00 W/m2 CLR
15:44 79.0 °F 52.6 °F 29.94 in Calm     40% 0.00 in 0.00 W/m2 CLR
15:49 79.0 °F 52.6 °F 29.94 in Calm     40% 0.00 in 0.00 W/m2 CLR
15:54 79.0 °F 52.6 °F 29.94 in Calm     40% 0.00 in 0.00 W/m2 CLR
15:59 79.0 °F 52.6 °F 29.94 in Calm     40% 0.00 in 0.00 W/m2 CLR
16:04 77.0 °F 51.5 °F 29.92 in Calm     41% 0.00 in 0.00 W/m2 CLR
16:09 77.0 °F 51.5 °F 29.92 in Calm     41% 0.00 in 0.00 W/m2 CLR
16:14 77.0 °F 51.5 °F 29.92 in Calm     41% 0.00 in 0.00 W/m2 CLR
16:19 77.0 °F 51.5 °F 29.92 in Calm     41% 0.00 in 0.00 W/m2 CLR
16:24 77.0 °F 51.5 °F 29.92 in Calm     41% 0.00 in 0.00 W/m2 CLR
16:29 77.0 °F 51.5 °F 29.92 in Calm     41% 0.00 in 0.00 W/m2 CLR
16:34 77.0 °F 51.5 °F 29.92 in Calm     41% 0.00 in 0.00 W/m2 CLR
16:39 77.0 °F 51.5 °F 29.92 in Calm     41% 0.00 in 0.00 W/m2 CLR
16:44 77.0 °F 51.5 °F 29.92 in Calm     41% 0.00 in 0.00 W/m2 CLR
16:49 77.0 °F 51.5 °F 29.92 in Calm     41% 0.00 in 0.00 W/m2 CLR
16:54 77.0 °F 51.5 °F 29.92 in Calm     41% 0.00 in 0.00 W/m2 CLR
16:59 77.0 °F 51.5 °F 29.92 in Calm     41% 0.00 in 0.00 W/m2 CLR
17:04 77.0 °F 53.4 °F 29.91 in Calm     44% 0.00 in 0.00 W/m2 CLR
17:09 77.0 °F 53.4 °F 29.91 in Calm     44% 0.00 in 0.00 W/m2 CLR
17:14 77.0 °F 53.4 °F 29.91 in Calm     44% 0.00 in 0.00 W/m2 CLR
17:19 77.0 °F 53.4 °F 29.91 in Calm     44% 0.00 in 0.00 W/m2 CLR
17:24 77.0 °F 53.4 °F 29.91 in Calm     44% 0.00 in 0.00 W/m2 CLR
17:29 77.0 °F 53.4 °F 29.91 in Calm     44% 0.00 in 0.00 W/m2 CLR
17:34 77.0 °F 53.4 °F 29.91 in Calm     44% 0.00 in 0.00 W/m2 CLR
17:39 77.0 °F 53.4 °F 29.91 in Calm     44% 0.00 in 0.00 W/m2 CLR
17:44 77.0 °F 53.4 °F 29.91 in Calm     44% 0.00 in 0.00 W/m2 CLR
17:49 77.0 °F 53.4 °F 29.91 in Calm     44% 0.00 in 0.00 W/m2 CLR
17:54 77.0 °F 53.4 °F 29.91 in Calm     44% 0.00 in 0.00 W/m2 CLR
17:59 77.0 °F 53.4 °F 29.91 in Calm     44% 0.00 in 0.00 W/m2 CLR
18:04 72.0 °F 53.9 °F 29.90 in Calm     53% 0.00 in 0.00 W/m2 CLR
18:09 72.0 °F 53.9 °F 29.90 in Calm     53% 0.00 in 0.00 W/m2 CLR
18:14 72.0 °F 53.9 °F 29.90 in Calm     53% 0.00 in 0.00 W/m2 CLR
18:19 72.0 °F 53.9 °F 29.90 in Calm     53% 0.00 in 0.00 W/m2 CLR
18:24 72.0 °F 53.9 °F 29.90 in Calm     53% 0.00 in 0.00 W/m2 CLR
18:29 72.0 °F 53.9 °F 29.90 in Calm     53% 0.00 in 0.00 W/m2 CLR
18:34 72.0 °F 53.9 °F 29.90 in Calm     53% 0.00 in 0.00 W/m2 CLR
18:39 72.0 °F 53.9 °F 29.90 in Calm     53% 0.00 in 0.00 W/m2 CLR
18:44 72.0 °F 53.9 °F 29.90 in Calm     53% 0.00 in 0.00 W/m2 CLR
18:49 72.0 °F 53.9 °F 29.90 in Calm     53% 0.00 in 0.00 W/m2 CLR
18:54 72.0 °F 53.9 °F 29.90 in Calm     53% 0.00 in 0.00 W/m2 CLR
18:59 72.0 °F 53.9 °F 29.90 in Calm     53% 0.00 in 0.00 W/m2 CLR
19:04 69.1 °F 54.6 °F 29.89 in Calm     60% 0.00 in 0.00 W/m2 CLR
19:09 69.1 °F 54.6 °F 29.89 in Calm     60% 0.00 in 0.00 W/m2 CLR
19:14 69.1 °F 54.6 °F 29.89 in Calm     60% 0.00 in 0.00 W/m2 CLR
19:19 69.1 °F 54.6 °F 29.89 in Calm     60% 0.00 in 0.00 W/m2 CLR
19:24 69.1 °F 54.6 °F 29.89 in Calm     60% 0.00 in 0.00 W/m2 CLR
19:29 69.1 °F 54.6 °F 29.89 in Calm     60% 0.00 in 0.00 W/m2 CLR
19:34 69.1 °F 54.6 °F 29.89 in Calm     60% 0.00 in 0.00 W/m2 CLR
19:39 69.1 °F 54.6 °F 29.89 in Calm     60% 0.00 in 0.00 W/m2 CLR
19:44 69.1 °F 54.6 °F 29.89 in Calm     60% 0.00 in 0.00 W/m2 CLR
19:49 69.1 °F 54.6 °F 29.89 in Calm     60% 0.00 in 0.00 W/m2 CLR
19:54 69.1 °F 54.6 °F 29.89 in Calm     60% 0.00 in 0.00 W/m2 CLR
19:59 69.1 °F 54.6 °F 29.89 in Calm     60% 0.00 in 0.00 W/m2 CLR
20:04 68.0 °F 55.8 °F 29.89 in Calm     65% 0.00 in 0.00 W/m2 CLR
Lake Mary, FL, USA
Compliments of Weather Underground - 1.75 mb